createdAt,value
2019-05-25T00:00:49.681Z,980.102
2019-05-25T00:02:49.858Z,980.118
2019-05-25T00:04:50.202Z,980.118
2019-05-25T00:06:50.405Z,980.112
2019-05-25T00:08:50.558Z,980.137
2019-05-25T00:10:49.736Z,980.119
2019-05-25T00:12:49.928Z,980.115
2019-05-25T00:14:49.932Z,980.085
2019-05-25T00:16:50.203Z,980.059
2019-05-25T00:18:50.332Z,980.061
2019-05-25T00:20:50.437Z,980.047
2019-05-25T00:22:49.614Z,980.034
2019-05-25T00:24:49.602Z,980.027
2019-05-25T00:26:49.890Z,980.029
2019-05-25T00:28:49.899Z,980.022
2019-05-25T00:30:49.941Z,980.028
2019-05-25T00:32:50.032Z,980.029
2019-05-25T00:34:50.507Z,980.019
2019-05-25T00:36:49.737Z,980.027
2019-05-25T00:38:49.918Z,980.045
2019-05-25T00:40:50.007Z,980.051
2019-05-25T00:42:50.109Z,980.075
2019-05-25T00:44:50.193Z,980.110
2019-05-25T00:46:50.383Z,980.129
2019-05-25T00:48:50.403Z,980.135
2019-05-25T00:50:50.488Z,980.144
2019-05-25T00:52:50.536Z,980.144
2019-05-25T00:54:50.651Z,980.139
2019-05-25T00:56:49.786Z,980.141
2019-05-25T00:58:49.831Z,980.133
2019-05-25T01:00:49.976Z,980.129
2019-05-25T01:02:50.139Z,980.116
2019-05-25T01:04:50.550Z,980.107
2019-05-25T01:06:49.801Z,980.106
2019-05-25T01:08:49.826Z,980.100
2019-05-25T01:10:49.874Z,980.095
2019-05-25T01:12:50.055Z,980.089
2019-05-25T01:14:50.143Z,980.075
2019-05-25T01:16:50.457Z,980.078
2019-05-25T01:18:49.734Z,980.064
2019-05-25T01:20:49.923Z,980.046
2019-05-25T01:22:50.085Z,980.045
2019-05-25T01:24:50.185Z,980.093
2019-05-25T01:26:50.424Z,980.134
2019-05-25T01:28:50.442Z,980.142
2019-05-25T01:30:49.604Z,980.151
2019-05-25T01:32:49.866Z,980.168
2019-05-25T01:34:50.312Z,980.171
2019-05-25T01:36:50.559Z,980.179
2019-05-25T01:38:49.607Z,980.179
2019-05-25T01:40:49.789Z,980.166
2019-05-25T01:42:49.831Z,980.145
2019-05-25T01:44:49.896Z,980.133
2019-05-25T01:46:50.252Z,980.111
2019-05-25T01:48:50.275Z,980.092
2019-05-25T01:50:50.309Z,980.092
2019-05-25T01:52:50.420Z,980.090
2019-05-25T01:55:00.667Z,980.115
2019-05-25T01:56:49.865Z,980.108
2019-05-25T01:58:49.822Z,980.112
2019-05-25T02:00:49.874Z,980.110
2019-05-25T02:02:49.974Z,980.106
2019-05-25T02:04:50.358Z,980.112
2019-05-25T02:06:50.562Z,980.113
2019-05-25T02:08:50.027Z,980.127
2019-05-25T02:10:50.127Z,980.125
2019-05-25T02:12:50.202Z,980.118
2019-05-25T02:14:50.261Z,980.132
2019-05-25T02:16:49.612Z,980.139
2019-05-25T02:18:49.669Z,980.135
2019-05-25T02:20:49.736Z,980.140
2019-05-25T02:22:49.793Z,980.158
2019-05-25T02:24:49.923Z,980.152
2019-05-25T02:26:50.149Z,980.132
2019-05-25T02:28:50.307Z,980.115
2019-05-25T02:30:50.415Z,980.099
2019-05-25T02:32:50.542Z,980.116
2019-05-25T02:34:49.936Z,980.103
2019-05-25T02:36:50.130Z,980.109
2019-05-25T02:38:50.238Z,980.114
2019-05-25T02:40:50.419Z,980.113
2019-05-25T02:42:50.443Z,980.113
2019-05-25T02:44:50.418Z,980.085
2019-05-25T02:46:50.599Z,980.091
2019-05-25T02:48:49.672Z,980.114
2019-05-25T02:50:53.307Z,980.114
2019-05-25T02:52:50.338Z,980.127
2019-05-25T02:54:50.432Z,980.114
2019-05-25T02:56:50.612Z,980.112
2019-05-25T02:58:49.663Z,980.106
2019-05-25T03:00:49.726Z,980.107
2019-05-25T03:02:49.803Z,980.111
2019-05-25T03:04:50.230Z,980.125
2019-05-25T03:06:50.535Z,980.117
2019-05-25T03:08:50.580Z,980.131
2019-05-25T03:10:50.799Z,980.120
2019-05-25T03:12:50.207Z,980.103
2019-05-25T03:14:50.182Z,980.097
2019-05-25T03:16:50.447Z,980.118
2019-05-25T03:18:50.508Z,980.129
2019-05-25T03:20:49.742Z,980.125
2019-05-25T03:22:49.696Z,980.104
2019-05-25T03:24:49.822Z,980.122
2019-05-25T03:26:49.987Z,980.136
2019-05-25T03:28:50.126Z,980.130
2019-05-25T03:30:50.306Z,980.128
2019-05-25T03:32:50.424Z,980.117
2019-05-25T03:34:49.914Z,980.102
2019-05-25T03:36:50.218Z,980.084
2019-05-25T03:38:50.293Z,980.072
2019-05-25T03:40:50.373Z,980.092
2019-05-25T03:42:50.432Z,980.101
2019-05-25T03:44:50.529Z,980.116
2019-05-25T03:46:49.941Z,980.132
2019-05-25T03:48:50.028Z,980.151
2019-05-25T03:50:50.169Z,980.175
2019-05-25T03:52:50.299Z,980.182
2019-05-25T03:54:50.353Z,980.195
2019-05-25T03:56:50.611Z,980.220
2019-05-25T03:58:49.631Z,980.266
2019-05-25T04:00:49.781Z,980.266
2019-05-25T04:02:50.284Z,980.266
2019-05-25T04:04:49.882Z,980.255
2019-05-25T04:06:50.106Z,980.214
2019-05-25T04:08:50.127Z,980.173
2019-05-25T04:10:50.191Z,980.168
2019-05-25T04:12:50.218Z,980.171
2019-05-25T04:14:50.295Z,980.170
2019-05-25T04:16:50.502Z,980.208
2019-05-25T04:18:49.758Z,980.234
2019-05-25T04:20:49.879Z,980.284
2019-05-25T04:22:49.961Z,980.310
2019-05-25T04:24:50.035Z,980.337
2019-05-25T04:26:50.449Z,980.361
2019-05-25T04:28:50.519Z,980.380
2019-05-25T04:30:50.597Z,980.402
2019-05-25T04:32:49.689Z,980.390
2019-05-25T04:34:50.207Z,980.377
2019-05-25T04:36:50.405Z,980.375
2019-05-25T04:38:50.765Z,980.383
2019-05-25T04:40:49.947Z,980.393
2019-05-25T04:42:49.931Z,980.391
2019-05-25T04:44:49.961Z,980.404
2019-05-25T04:46:50.255Z,980.397
2019-05-25T04:48:50.308Z,980.392
2019-05-25T04:50:50.370Z,980.391
2019-05-25T04:52:50.447Z,980.401
2019-05-25T04:54:49.675Z,980.405
2019-05-25T04:56:50.093Z,980.435
2019-05-25T04:58:50.138Z,980.435
2019-05-25T05:00:50.191Z,980.435
2019-05-25T05:02:50.253Z,980.483
2019-05-25T05:04:49.651Z,980.496
2019-05-25T05:06:50.103Z,980.487
2019-05-25T05:08:50.256Z,980.493
2019-05-25T05:10:50.321Z,980.509
2019-05-25T05:12:50.431Z,980.505
2019-05-25T05:14:50.409Z,980.466
2019-05-25T05:16:49.699Z,980.462
2019-05-25T05:18:49.775Z,980.445
2019-05-25T05:20:49.877Z,980.435
2019-05-25T05:22:49.909Z,980.415
2019-05-25T05:24:49.933Z,980.410
2019-05-25T05:26:56.677Z,980.400
2019-05-25T05:28:49.756Z,980.423
2019-05-25T05:30:49.879Z,980.438
2019-05-25T05:32:49.941Z,980.457
2019-05-25T05:34:50.431Z,980.462
2019-05-25T05:36:50.249Z,980.469
2019-05-25T05:38:50.261Z,980.460
2019-05-25T05:40:50.434Z,980.451
2019-05-25T05:42:50.443Z,980.456
2019-05-25T05:44:50.502Z,980.464
2019-05-25T05:46:49.787Z,980.455
2019-05-25T05:48:49.765Z,980.481
2019-05-25T05:50:49.851Z,980.485
2019-05-25T05:52:49.851Z,980.504
2019-05-25T05:54:49.948Z,980.511
2019-05-25T05:56:50.256Z,980.522
2019-05-25T05:58:50.328Z,980.517
2019-05-25T06:00:50.444Z,980.527
2019-05-25T06:02:50.602Z,980.557
2019-05-25T06:04:50.265Z,980.569
2019-05-25T06:06:50.485Z,980.594
2019-05-25T06:08:50.490Z,980.604
2019-05-25T06:10:50.481Z,980.618
2019-05-25T06:12:50.504Z,980.621
2019-05-25T06:14:50.571Z,980.598
2019-05-25T06:16:49.881Z,980.594
2019-05-25T06:18:49.969Z,980.594
2019-05-25T06:20:50.110Z,980.595
2019-05-25T06:22:50.155Z,980.605
2019-05-25T06:24:50.271Z,980.635
2019-05-25T06:26:50.415Z,980.652
2019-05-25T06:28:50.478Z,980.654
2019-05-25T06:30:50.542Z,980.664
2019-05-25T06:32:49.656Z,980.660
2019-05-25T06:34:50.200Z,980.673
2019-05-25T06:36:50.360Z,980.672
2019-05-25T06:38:50.476Z,980.669
2019-05-25T06:40:50.497Z,980.680
2019-05-25T06:42:50.492Z,980.708
2019-05-25T06:44:49.748Z,980.717
2019-05-25T06:46:50.158Z,980.726
2019-05-25T06:48:50.190Z,980.751
2019-05-25T06:50:50.228Z,980.747
2019-05-25T06:52:50.359Z,980.761
2019-05-25T06:54:50.469Z,980.775
2019-05-25T06:56:49.672Z,980.792
2019-05-25T06:58:49.782Z,980.792
2019-05-25T07:00:49.826Z,980.810
2019-05-25T07:02:49.837Z,980.832
2019-05-25T07:04:50.182Z,980.835
2019-05-25T07:06:50.469Z,980.848
2019-05-25T07:08:49.686Z,980.872
2019-05-25T07:10:49.633Z,980.900
2019-05-25T07:12:49.758Z,980.900
2019-05-25T07:14:49.823Z,980.961
2019-05-25T07:16:50.210Z,980.961
2019-05-25T07:18:50.413Z,980.964
2019-05-25T07:20:50.445Z,980.988
2019-05-25T07:22:50.545Z,980.989
2019-05-25T07:24:49.879Z,980.996
2019-05-25T07:26:50.170Z,981.008
2019-05-25T07:28:50.284Z,981.016
2019-05-25T07:30:50.359Z,981.011
2019-05-25T07:32:50.379Z,981.021
2019-05-25T07:34:49.823Z,981.039
2019-05-25T07:36:49.889Z,981.040
2019-05-25T07:38:50.175Z,981.037
2019-05-25T07:40:50.281Z,981.048
2019-05-25T07:42:50.276Z,981.058
2019-05-25T07:44:50.408Z,981.056
2019-05-25T07:46:50.505Z,981.053
2019-05-25T07:48:50.726Z,981.040
2019-05-25T07:50:49.790Z,981.085
2019-05-25T07:52:49.894Z,981.087
2019-05-25T07:54:49.938Z,981.096
2019-05-25T07:56:50.208Z,981.096
2019-05-25T07:58:50.372Z,981.103
2019-05-25T08:00:50.473Z,981.118
2019-05-25T08:02:50.537Z,981.128
2019-05-25T08:04:49.943Z,981.113
2019-05-25T08:06:50.127Z,981.113
2019-05-25T08:08:50.287Z,981.130
2019-05-25T08:10:50.458Z,981.122
2019-05-25T08:12:50.558Z,981.151
2019-05-25T08:14:49.632Z,981.169
2019-05-25T08:16:49.883Z,981.173
2019-05-25T08:18:49.977Z,981.176
2019-05-25T08:20:50.152Z,981.197
2019-05-25T08:22:50.266Z,981.211
2019-05-25T08:24:50.376Z,981.205
2019-05-25T08:26:49.732Z,981.208
2019-05-25T08:28:49.815Z,981.205
2019-05-25T08:30:49.935Z,981.182
2019-05-25T08:32:50.123Z,981.169
2019-05-25T08:34:50.580Z,981.176
2019-05-25T08:36:49.787Z,981.168
2019-05-25T08:38:49.861Z,981.167
2019-05-25T08:40:49.902Z,981.178
2019-05-25T08:42:49.981Z,981.191
2019-05-25T08:44:50.045Z,981.195
2019-05-25T08:46:50.285Z,981.181
2019-05-25T08:48:50.271Z,981.174
2019-05-25T08:50:50.298Z,981.174
2019-05-25T08:52:50.418Z,981.172
2019-05-25T08:54:50.521Z,981.189
2019-05-25T08:56:49.718Z,981.194
2019-05-25T08:58:49.722Z,981.211
2019-05-25T09:00:49.871Z,981.223
2019-05-25T09:02:49.942Z,981.223
2019-05-25T09:04:50.355Z,981.233
2019-05-25T09:06:50.513Z,981.254
2019-05-25T09:08:50.501Z,981.251
2019-05-25T09:10:49.754Z,981.284
2019-05-25T09:12:49.986Z,981.293
2019-05-25T09:14:50.034Z,981.280
2019-05-25T09:16:50.224Z,981.271
2019-05-25T09:18:50.423Z,981.275
2019-05-25T09:20:50.488Z,981.275
2019-05-25T09:22:50.549Z,981.289
2019-05-25T09:24:49.610Z,981.295
2019-05-25T09:26:49.777Z,981.284
2019-05-25T09:29:05.174Z,981.266
2019-05-25T09:30:49.790Z,981.254
2019-05-25T09:32:49.764Z,981.252
2019-05-25T09:34:50.218Z,981.268
2019-05-25T09:36:50.487Z,981.280
2019-05-25T09:38:50.568Z,981.263
2019-05-25T09:40:49.651Z,981.246
2019-05-25T09:42:50.137Z,981.266
2019-05-25T09:44:50.336Z,981.264
2019-05-25T09:46:49.649Z,981.247
2019-05-25T09:48:49.631Z,981.196
2019-05-25T09:50:49.677Z,981.184
2019-05-25T09:52:49.800Z,981.168
2019-05-25T09:54:55.848Z,981.175
2019-05-25T09:56:50.138Z,981.184
2019-05-25T09:58:50.254Z,981.193
2019-05-25T10:00:50.349Z,981.201
2019-05-25T10:02:50.732Z,981.187
2019-05-25T10:04:50.315Z,981.194
2019-05-25T10:06:50.547Z,981.217
2019-05-25T10:08:50.616Z,981.218
2019-05-25T10:10:49.761Z,981.219
2019-05-25T10:12:49.747Z,981.273
2019-05-25T10:14:49.991Z,981.286
2019-05-25T10:16:50.160Z,981.264
2019-05-25T10:18:50.280Z,981.251
2019-05-25T10:20:50.265Z,981.261
2019-05-25T10:22:50.416Z,981.258
2019-05-25T10:24:50.499Z,981.297
2019-05-25T10:26:49.753Z,981.295
2019-05-25T10:28:49.693Z,981.321
2019-05-25T10:30:49.877Z,981.321
2019-05-25T10:32:49.826Z,981.244
2019-05-25T10:34:50.295Z,981.221
2019-05-25T10:36:50.452Z,981.247
2019-05-25T10:38:50.538Z,981.225
2019-05-25T10:40:49.784Z,981.258
2019-05-25T10:42:49.860Z,981.275
2019-05-25T10:44:49.827Z,981.290
2019-05-25T10:46:49.913Z,981.303
2019-05-25T10:48:50.004Z,981.274
2019-05-25T10:50:50.091Z,981.218
2019-05-25T10:52:50.205Z,981.210
2019-05-25T10:54:50.277Z,981.151
2019-05-25T10:56:50.445Z,981.155
2019-05-25T10:58:49.740Z,981.139
2019-05-25T11:00:49.970Z,981.137
2019-05-25T11:02:49.980Z,981.128
2019-05-25T11:04:50.347Z,981.084
2019-05-25T11:06:50.554Z,981.046
2019-05-25T11:08:50.587Z,981.052
2019-05-25T11:10:49.826Z,981.037
2019-05-25T11:12:49.896Z,981.022
2019-05-25T11:14:49.954Z,981.003
2019-05-25T11:16:50.190Z,980.999
2019-05-25T11:18:50.286Z,981.011
2019-05-25T11:20:50.412Z,981.007
2019-05-25T11:22:50.626Z,980.924
2019-05-25T11:24:49.774Z,980.881
2019-05-25T11:26:49.926Z,980.838
2019-05-25T11:28:50.047Z,980.818
2019-05-25T11:30:50.141Z,980.788
2019-05-25T11:32:50.245Z,980.783
2019-05-25T11:34:49.651Z,980.764
2019-05-25T11:36:49.937Z,980.737
2019-05-25T11:38:50.023Z,980.738
2019-05-25T11:40:50.077Z,980.730
2019-05-25T11:42:50.195Z,980.728
2019-05-25T11:44:50.348Z,980.699
2019-05-25T11:46:49.658Z,980.668
2019-05-25T11:48:49.716Z,980.621
2019-05-25T11:50:49.871Z,980.590
2019-05-25T11:52:50.114Z,980.581
2019-05-25T11:54:50.339Z,980.580
2019-05-25T11:56:50.432Z,980.555
2019-05-25T11:58:50.584Z,980.573
2019-05-25T12:00:51.963Z,980.558
2019-05-25T12:02:50.130Z,980.536
2019-05-25T12:04:50.580Z,980.513
2019-05-25T12:06:49.843Z,980.487
2019-05-25T12:08:49.884Z,980.446
2019-05-25T12:10:49.951Z,980.422
2019-05-25T12:12:50.058Z,980.424
2019-05-25T12:14:50.170Z,980.363
2019-05-25T12:16:50.454Z,980.316
2019-05-25T12:18:50.622Z,980.304
2019-05-25T12:20:49.723Z,980.320
2019-05-25T12:22:49.943Z,980.309
2019-05-25T12:24:49.664Z,980.253
2019-05-25T12:26:49.876Z,980.227
2019-05-25T12:28:49.959Z,980.218
2019-05-25T12:30:50.034Z,980.253
2019-05-25T12:32:50.139Z,980.240
2019-05-25T12:34:50.527Z,980.196
2019-05-25T12:36:49.879Z,980.164
2019-05-25T12:38:49.932Z,980.164
2019-05-25T12:40:54.421Z,980.142
2019-05-25T12:42:50.578Z,980.137
2019-05-25T12:44:49.720Z,980.212
2019-05-25T12:46:50.015Z,980.242
2019-05-25T12:48:50.090Z,980.210
2019-05-25T12:50:50.269Z,980.180
2019-05-25T12:52:50.338Z,980.188
2019-05-25T12:54:50.374Z,980.164
2019-05-25T12:56:49.687Z,980.164
2019-05-25T12:58:50.550Z,980.146
2019-05-25T13:00:56.646Z,980.144
2019-05-25T13:02:49.894Z,980.150
2019-05-25T13:04:50.344Z,980.206
2019-05-25T13:06:49.632Z,980.208
2019-05-25T13:08:49.725Z,980.175
2019-05-25T13:10:49.841Z,980.196
2019-05-25T13:12:50.118Z,980.197
2019-05-25T13:14:50.201Z,980.154
2019-05-25T13:16:50.381Z,980.176
2019-05-25T13:18:50.389Z,980.175
2019-05-25T13:20:50.478Z,980.155
2019-05-25T13:22:50.512Z,980.171
2019-05-25T13:24:50.767Z,980.169
2019-05-25T13:26:50.254Z,980.148
2019-05-25T13:28:50.264Z,980.124
2019-05-25T13:30:50.415Z,980.096
2019-05-25T13:32:50.438Z,980.091
2019-05-25T13:34:49.895Z,980.089
2019-05-25T13:36:50.219Z,980.071
2019-05-25T13:38:50.211Z,980.084
2019-05-25T13:40:50.332Z,980.065
2019-05-25T13:42:50.436Z,980.051
2019-05-25T13:44:50.451Z,980.034
2019-05-25T13:46:49.632Z,980.053
2019-05-25T13:48:49.713Z,980.015
2019-05-25T13:50:49.775Z,979.984
2019-05-25T13:52:49.879Z,979.974
2019-05-25T13:54:49.973Z,979.964
2019-05-25T13:56:50.142Z,979.964
2019-05-25T13:58:50.220Z,979.993
2019-05-25T14:00:50.288Z,980.035
2019-05-25T14:02:50.406Z,980.070
2019-05-25T14:04:49.756Z,980.103
2019-05-25T14:06:50.241Z,980.089
2019-05-25T14:08:50.366Z,980.072
2019-05-25T14:10:50.327Z,980.057
2019-05-25T14:12:50.393Z,980.097
2019-05-25T14:14:50.494Z,980.112
2019-05-25T14:16:49.738Z,980.121
2019-05-25T14:18:49.848Z,980.123
2019-05-25T14:20:49.922Z,980.133
2019-05-25T14:22:49.972Z,980.156
2019-05-25T14:24:49.916Z,980.195
2019-05-25T14:26:50.076Z,980.190
2019-05-25T14:28:50.098Z,980.202
2019-05-25T14:30:50.151Z,980.209
2019-05-25T14:32:50.173Z,980.186
2019-05-25T14:34:50.580Z,980.166
2019-05-25T14:36:49.790Z,980.143
2019-05-25T14:38:49.899Z,980.109
2019-05-25T14:40:50.006Z,980.109
2019-05-25T14:42:50.187Z,980.072
2019-05-25T14:44:50.220Z,980.066
2019-05-25T14:46:50.402Z,980.035
2019-05-25T14:48:50.433Z,980.057
2019-05-25T14:50:49.686Z,980.074
2019-05-25T14:52:49.648Z,980.106
2019-05-25T14:54:49.675Z,980.117
2019-05-25T14:56:50.047Z,980.124
2019-05-25T14:58:50.141Z,980.139
2019-05-25T15:00:50.361Z,980.135
2019-05-25T15:02:50.412Z,980.131
2019-05-25T15:04:49.811Z,980.115
2019-05-25T15:06:49.964Z,980.102
2019-05-25T15:08:49.986Z,980.086
2019-05-25T15:10:50.101Z,980.066
2019-05-25T15:12:50.315Z,980.061
2019-05-25T15:14:50.379Z,980.077
2019-05-25T15:16:50.869Z,980.115
2019-05-25T15:18:50.153Z,980.144
2019-05-25T15:20:50.245Z,980.168
2019-05-25T15:22:50.394Z,980.210
2019-05-25T15:24:50.396Z,980.264
2019-05-25T15:26:49.745Z,980.294
2019-05-25T15:28:49.694Z,980.325
2019-05-25T15:30:49.762Z,980.349
2019-05-25T15:32:49.772Z,980.350
2019-05-25T15:34:50.307Z,980.388
2019-05-25T15:36:50.582Z,980.412
2019-05-25T15:38:50.581Z,980.439
2019-05-25T15:40:49.663Z,980.455
2019-05-25T15:42:49.682Z,980.465
2019-05-25T15:44:49.746Z,980.469
2019-05-25T15:46:50.255Z,980.460
2019-05-25T15:48:50.562Z,980.443
2019-05-25T15:50:50.649Z,980.458
2019-05-25T15:52:49.709Z,980.505
2019-05-25T15:54:49.826Z,980.536
2019-05-25T15:56:50.098Z,980.531
2019-05-25T15:58:50.168Z,980.541
2019-05-25T16:00:50.279Z,980.553
2019-05-25T16:02:50.338Z,980.571
2019-05-25T16:04:49.653Z,980.591
2019-05-25T16:06:50.091Z,980.581
2019-05-25T16:08:50.196Z,980.566
2019-05-25T16:10:50.363Z,980.561
2019-05-25T16:12:50.385Z,980.570
2019-05-25T16:14:50.414Z,980.575
2019-05-25T16:16:49.689Z,980.564
2019-05-25T16:18:49.727Z,980.549
2019-05-25T16:20:49.776Z,980.550
2019-05-25T16:22:49.795Z,980.566
2019-05-25T16:24:49.896Z,980.587
2019-05-25T16:26:50.210Z,980.596
2019-05-25T16:28:50.381Z,980.586
2019-05-25T16:30:50.441Z,980.579
2019-05-25T16:33:12.763Z,980.584
2019-05-25T16:34:49.819Z,980.614
2019-05-25T16:36:50.185Z,980.635
2019-05-25T16:38:50.350Z,980.700
2019-05-25T16:40:50.457Z,980.721
2019-05-25T16:42:50.519Z,980.750
2019-05-25T16:44:49.683Z,980.777
2019-05-25T16:46:49.760Z,980.777
2019-05-25T16:48:49.920Z,980.781
2019-05-25T16:50:49.971Z,980.781
2019-05-25T16:52:50.079Z,980.815
2019-05-25T16:54:50.313Z,980.826
2019-05-25T16:56:50.578Z,980.861
2019-05-25T16:58:50.529Z,980.871
2019-05-25T17:00:50.603Z,980.876
2019-05-25T17:02:49.727Z,980.893
2019-05-25T17:04:50.210Z,980.913
2019-05-25T17:06:50.420Z,980.913
2019-05-25T17:08:50.445Z,980.976
2019-05-25T17:10:50.452Z,980.976
2019-05-25T17:12:50.507Z,981.016
2019-05-25T17:14:50.548Z,981.003
2019-05-25T17:16:49.849Z,981.014
2019-05-25T17:18:49.924Z,981.019
2019-05-25T17:20:50.121Z,981.000
2019-05-25T17:22:50.228Z,980.976
2019-05-25T17:24:50.378Z,980.976
2019-05-25T17:26:49.648Z,980.970
2019-05-25T17:28:49.641Z,980.959
2019-05-25T17:30:49.726Z,980.958
2019-05-25T17:32:49.833Z,980.997
2019-05-25T17:34:50.338Z,981.012
2019-05-25T17:36:49.607Z,981.026
2019-05-25T17:38:49.638Z,981.054
2019-05-25T17:40:49.688Z,981.042
2019-05-25T17:42:49.684Z,981.027
2019-05-25T17:44:49.834Z,981.024
2019-05-25T17:46:50.080Z,981.024
2019-05-25T17:48:50.296Z,981.028
2019-05-25T17:50:50.361Z,981.028
2019-05-25T17:52:50.410Z,981.019
2019-05-25T17:54:50.483Z,981.022
2019-05-25T17:56:49.807Z,980.994
2019-05-25T17:58:49.801Z,981.012
2019-05-25T18:00:49.897Z,981.010
2019-05-25T18:02:50.033Z,980.990
2019-05-25T18:04:50.516Z,980.966
2019-05-25T18:06:49.814Z,980.956
2019-05-25T18:08:49.982Z,980.948
2019-05-25T18:10:55.029Z,980.948
2019-05-25T18:12:50.555Z,980.956
2019-05-25T18:14:49.705Z,980.961
2019-05-25T18:16:49.957Z,980.971
2019-05-25T18:18:50.082Z,980.996
2019-05-25T18:20:50.933Z,981.016
2019-05-25T18:22:50.335Z,981.016
2019-05-25T18:24:50.308Z,981.035
2019-05-25T18:26:50.448Z,981.035
2019-05-25T18:28:49.608Z,981.020
2019-05-25T18:30:49.694Z,981.033
2019-05-25T18:32:49.876Z,981.048
2019-05-25T18:34:50.402Z,981.049
2019-05-25T18:36:50.496Z,981.063
2019-05-25T18:38:50.520Z,981.054
2019-05-25T18:40:50.525Z,981.077
2019-05-25T18:42:49.740Z,981.083
2019-05-25T18:44:49.873Z,981.090
2019-05-25T18:46:50.080Z,981.097
2019-05-25T18:48:50.200Z,981.090
2019-05-25T18:50:50.392Z,981.103
2019-05-25T18:52:49.901Z,981.142
2019-05-25T18:54:49.921Z,981.164
2019-05-25T18:56:50.063Z,981.159
2019-05-25T18:58:50.254Z,981.154
2019-05-25T19:00:50.343Z,981.158
2019-05-25T19:02:50.448Z,981.154
2019-05-25T19:05:00.391Z,981.175
2019-05-25T19:06:50.563Z,981.185
2019-05-25T19:08:50.620Z,981.192
2019-05-25T19:10:49.706Z,981.197
2019-05-25T19:12:49.712Z,981.182
2019-05-25T19:14:49.769Z,981.180
2019-05-25T19:16:50.048Z,981.199
2019-05-25T19:18:50.226Z,981.212
2019-05-25T19:20:50.399Z,981.243
2019-05-25T19:22:50.636Z,981.278
2019-05-25T19:24:49.750Z,981.323
2019-05-25T19:26:50.206Z,981.348
2019-05-25T19:28:50.307Z,981.395
2019-05-25T19:30:50.367Z,981.468
2019-05-25T19:32:50.440Z,981.517
2019-05-25T19:35:00.484Z,981.540
2019-05-25T19:36:50.562Z,981.568
2019-05-25T19:38:49.604Z,981.555
2019-05-25T19:40:49.636Z,981.577
2019-05-25T19:42:50.649Z,981.611
2019-05-25T19:44:49.672Z,981.611
2019-05-25T19:46:49.921Z,981.656
2019-05-25T19:48:49.929Z,981.693
2019-05-25T19:50:49.944Z,981.693
2019-05-25T19:52:50.239Z,981.716
2019-05-25T19:54:50.373Z,981.701
2019-05-25T19:56:50.517Z,981.663
2019-05-25T19:58:50.248Z,981.651
2019-05-25T20:00:50.315Z,981.643
2019-05-25T20:02:50.363Z,981.644
2019-05-25T20:04:49.743Z,981.645
2019-05-25T20:06:50.151Z,981.642
2019-05-25T20:08:50.286Z,981.681
2019-05-25T20:10:50.320Z,981.704
2019-05-25T20:12:50.374Z,981.776
2019-05-25T20:14:50.576Z,981.833
2019-05-25T20:16:50.520Z,981.923
2019-05-25T20:18:50.585Z,981.958
2019-05-25T20:20:49.627Z,981.959
2019-05-25T20:22:49.688Z,981.965
2019-05-25T20:24:49.699Z,981.986
2019-05-25T20:26:49.932Z,981.983
2019-05-25T20:28:51.173Z,981.969
2019-05-25T20:30:50.353Z,981.969
2019-05-25T20:32:50.601Z,982.023
2019-05-25T20:34:50.001Z,982.045
2019-05-25T20:36:50.272Z,982.074
2019-05-25T20:38:50.225Z,982.072
2019-05-25T20:40:50.613Z,982.075
2019-05-25T20:42:49.916Z,982.057
2019-05-25T20:44:50.040Z,982.039
2019-05-25T20:46:50.218Z,982.047
2019-05-25T20:48:50.340Z,982.054
2019-05-25T20:50:50.501Z,982.070
2019-05-25T20:52:49.936Z,982.118
2019-05-25T20:54:49.951Z,982.163
2019-05-25T20:56:50.152Z,982.183
2019-05-25T20:58:50.240Z,982.202
2019-05-25T21:00:50.380Z,982.189
2019-05-25T21:03:06.905Z,982.184
2019-05-25T21:04:49.878Z,982.216
2019-05-25T21:06:50.040Z,982.216
2019-05-25T21:08:50.159Z,982.221
2019-05-25T21:10:50.261Z,982.199
2019-05-25T21:12:50.278Z,982.197
2019-05-25T21:14:50.384Z,982.188
2019-05-25T21:16:50.465Z,982.181
2019-05-25T21:18:49.627Z,982.199
2019-05-25T21:20:49.721Z,982.217
2019-05-25T21:22:49.784Z,982.233
2019-05-25T21:24:49.765Z,982.242
2019-05-25T21:26:50.112Z,982.256
2019-05-25T21:28:50.109Z,982.270
2019-05-25T21:30:50.059Z,982.284
2019-05-25T21:32:50.137Z,982.290
2019-05-25T21:34:50.550Z,982.293
2019-05-25T21:36:49.943Z,982.311
2019-05-25T21:38:50.080Z,982.303
2019-05-25T21:40:50.176Z,982.284
2019-05-25T21:42:50.200Z,982.271
2019-05-25T21:44:50.244Z,982.286
2019-05-25T21:46:50.408Z,982.320
2019-05-25T21:48:50.431Z,982.372
2019-05-25T21:50:50.502Z,982.419
2019-05-25T21:52:50.591Z,982.434
2019-05-25T21:54:49.776Z,982.449
2019-05-25T21:56:50.198Z,982.441
2019-05-25T21:58:50.417Z,982.420
2019-05-25T22:00:50.522Z,982.420
2019-05-25T22:02:49.688Z,982.420
2019-05-25T22:04:50.277Z,982.427
2019-05-25T22:06:50.470Z,982.440
2019-05-25T22:08:50.581Z,982.461
2019-05-25T22:10:49.675Z,982.457
2019-05-25T22:12:49.765Z,982.451
2019-05-25T22:14:49.871Z,982.436
2019-05-25T22:16:50.086Z,982.402
2019-05-25T22:18:50.231Z,982.405
2019-05-25T22:20:50.442Z,982.399
2019-05-25T22:22:50.529Z,982.381
2019-05-25T22:24:49.644Z,982.374
2019-05-25T22:26:49.871Z,982.398
2019-05-25T22:28:49.940Z,982.422
2019-05-25T22:30:50.089Z,982.435
2019-05-25T22:32:50.166Z,982.466
2019-05-25T22:34:50.551Z,982.473
2019-05-25T22:36:49.671Z,982.487
2019-05-25T22:38:49.813Z,982.479
2019-05-25T22:40:50.048Z,982.472
2019-05-25T22:42:50.302Z,982.477
2019-05-25T22:44:50.467Z,982.485
2019-05-25T22:46:49.671Z,982.483
2019-05-25T22:48:49.766Z,982.481
2019-05-25T22:50:49.835Z,982.508
2019-05-25T22:52:50.016Z,982.501
2019-05-25T22:54:50.151Z,982.496
2019-05-25T22:56:50.468Z,982.481
2019-05-25T22:58:50.538Z,982.473
2019-05-25T23:00:50.532Z,982.475
2019-05-25T23:02:49.785Z,982.472
2019-05-25T23:04:50.238Z,982.478
2019-05-25T23:06:58.870Z,982.510
2019-05-25T23:08:49.942Z,982.508
2019-05-25T23:10:50.125Z,982.548
2019-05-25T23:12:50.275Z,982.552
2019-05-25T23:14:50.315Z,982.555
2019-05-25T23:16:50.477Z,982.545
2019-05-25T23:18:50.487Z,982.535
2019-05-25T23:20:49.672Z,982.520
2019-05-25T23:22:49.720Z,982.502
2019-05-25T23:24:49.851Z,982.487
2019-05-25T23:26:50.041Z,982.488
2019-05-25T23:28:50.149Z,982.494
2019-05-25T23:30:50.189Z,982.490
2019-05-25T23:32:50.276Z,982.455
2019-05-25T23:34:49.683Z,982.442
2019-05-25T23:36:49.904Z,982.445
2019-05-25T23:38:49.901Z,982.420
2019-05-25T23:40:49.924Z,982.420
2019-05-25T23:42:49.990Z,982.413
2019-05-25T23:44:50.072Z,982.415
2019-05-25T23:46:50.255Z,982.410
2019-05-25T23:48:50.331Z,982.378
2019-05-25T23:50:50.382Z,982.368
2019-05-25T23:52:50.960Z,982.368
2019-05-25T23:54:50.316Z,982.370
2019-05-25T23:56:49.654Z,982.379
2019-05-25T23:58:49.696Z,982.373
